sensor_id;sensor_type;location;lat;lon;timestamp;pressure;altitude;pressure_sealevel;temperature;humidity
16355;BME280;8287;51.644;8.494;2023-05-10T00:02:13;99496.84;;;17.56;99.29
16355;BME280;8287;51.644;8.494;2023-05-10T00:04:40;99497.63;;;17.60;99.38
16355;BME280;8287;51.644;8.494;2023-05-10T00:07:07;99496.09;;;17.59;99.17
16355;BME280;8287;51.644;8.494;2023-05-10T00:09:33;99495.31;;;17.62;98.70
16355;BME280;8287;51.644;8.494;2023-05-10T00:12:00;99488.78;;;17.56;98.92
16355;BME280;8287;51.644;8.494;2023-05-10T00:14:28;99492.25;;;17.60;98.55
16355;BME280;8287;51.644;8.494;2023-05-10T00:16:55;99484.59;;;17.58;98.73
16355;BME280;8287;51.644;8.494;2023-05-10T00:19:21;99486.88;;;17.56;99.04
16355;BME280;8287;51.644;8.494;2023-05-10T00:21:48;99485.69;;;17.54;98.76
16355;BME280;8287;51.644;8.494;2023-05-10T00:24:14;99480.75;;;17.56;98.95
16355;BME280;8287;51.644;8.494;2023-05-10T00:26:41;99474.66;;;17.59;99.10
16355;BME280;8287;51.644;8.494;2023-05-10T00:29:08;99472.31;;;17.54;99.18
16355;BME280;8287;51.644;8.494;2023-05-10T00:31:36;99461.16;;;17.12;100.00
16355;BME280;8287;51.644;8.494;2023-05-10T00:34:03;99471.38;;;16.99;100.00
16355;BME280;8287;51.644;8.494;2023-05-10T00:36:30;99469.34;;;16.89;100.00
16355;BME280;8287;51.644;8.494;2023-05-10T00:38:56;99461.59;;;17.14;100.00
16355;BME280;8287;51.644;8.494;2023-05-10T00:41:23;99459.06;;;17.31;100.00
16355;BME280;8287;51.644;8.494;2023-05-10T00:43:50;99457.66;;;17.41;100.00
16355;BME280;8287;51.644;8.494;2023-05-10T00:46:16;99456.91;;;17.44;100.00
16355;BME280;8287;51.644;8.494;2023-05-10T00:48:44;99463.25;;;17.29;100.00
16355;BME280;8287;51.644;8.494;2023-05-10T00:51:11;99464.38;;;17.28;100.00
16355;BME280;8287;51.644;8.494;2023-05-10T00:53:38;99462.19;;;17.37;100.00
16355;BME280;8287;51.644;8.494;2023-05-10T00:56:05;99458.84;;;17.43;100.00
16355;BME280;8287;51.644;8.494;2023-05-10T00:58:31;99463.88;;;17.52;99.28
16355;BME280;8287;51.644;8.494;2023-05-10T01:00:58;99462.72;;;17.53;98.58
16355;BME280;8287;51.644;8.494;2023-05-10T01:03:25;99460.03;;;17.53;98.52
16355;BME280;8287;51.644;8.494;2023-05-10T01:05:53;99465.41;;;17.53;99.34
16355;BME280;8287;51.644;8.494;2023-05-10T01:08:20;99466.03;;;17.36;100.00
16355;BME280;8287;51.644;8.494;2023-05-10T01:10:47;99475.84;;;17.25;100.00
16355;BME280;8287;51.644;8.494;2023-05-10T01:13:22;99482.13;;;17.03;100.00
16355;BME280;8287;51.644;8.494;2023-05-10T01:15:51;99478.34;;;16.74;99.60
16355;BME280;8287;51.644;8.494;2023-05-10T01:18:20;99495.00;;;16.61;99.63
16355;BME280;8287;51.644;8.494;2023-05-10T01:20:48;99488.72;;;16.47;100.00
16355;BME280;8287;51.644;8.494;2023-05-10T01:23:34;99483.19;;;16.36;99.98
16355;BME280;8287;51.644;8.494;2023-05-10T01:29:13;99497.59;;;16.28;100.00
16355;BME280;8287;51.644;8.494;2023-05-10T01:32:09;99497.03;;;16.16;100.00
16355;BME280;8287;51.644;8.494;2023-05-10T01:34:47;99495.81;;;16.10;100.00
16355;BME280;8287;51.644;8.494;2023-05-10T01:37:20;99499.97;;;16.07;100.00
16355;BME280;8287;51.644;8.494;2023-05-10T01:39:55;99498.06;;;16.08;100.00
16355;BME280;8287;51.644;8.494;2023-05-10T01:42:27;99495.81;;;16.10;100.00
16355;BME280;8287;51.644;8.494;2023-05-10T01:45:00;99502.72;;;16.11;100.00
16355;BME280;8287;51.644;8.494;2023-05-10T01:47:35;99501.50;;;16.08;100.00
16355;BME280;8287;51.644;8.494;2023-05-10T01:50:08;99508.41;;;16.09;100.00
16355;BME280;8287;51.644;8.494;2023-05-10T01:52:38;99511.03;;;16.06;99.99
16355;BME280;8287;51.644;8.494;2023-05-10T01:55:09;99509.13;;;16.06;100.00
16355;BME280;8287;51.644;8.494;2023-05-10T01:57:39;99513.34;;;16.07;99.77
16355;BME280;8287;51.644;8.494;2023-05-10T02:00:08;99513.34;;;16.07;99.77
16355;BME280;8287;51.644;8.494;2023-05-10T02:02:39;99517.44;;;16.01;99.90
16355;BME280;8287;51.644;8.494;2023-05-10T02:05:08;99518.28;;;16.05;99.58
16355;BME280;8287;51.644;8.494;2023-05-10T02:07:36;99519.03;;;16.06;99.35
16355;BME280;8287;51.644;8.494;2023-05-10T02:10:04;99515.56;;;16.02;100.00
16355;BME280;8287;51.644;8.494;2023-05-10T02:12:35;99510.66;;;16.07;99.33
16355;BME280;8287;51.644;8.494;2023-05-10T02:15:04;99519.75;;;16.03;99.97
16355;BME280;8287;51.644;8.494;2023-05-10T02:17:32;99522.16;;;16.11;99.83
16355;BME280;8287;51.644;8.494;2023-05-10T02:20:01;99517.66;;;16.15;99.30
16355;BME280;8287;51.644;8.494;2023-05-10T02:22:29;99521.53;;;16.18;98.84
16355;BME280;8287;51.644;8.494;2023-05-10T02:24:57;99523.81;;;16.19;98.63
16355;BME280;8287;51.644;8.494;2023-05-10T02:27:25;99526.38;;;16.12;99.21
16355;BME280;8287;51.644;8.494;2023-05-10T02:29:53;99530.25;;;16.15;98.78
16355;BME280;8287;51.644;8.494;2023-05-10T02:32:21;99522.63;;;16.17;98.91
16355;BME280;8287;51.644;8.494;2023-05-10T02:34:48;99521.88;;;16.16;98.50
16355;BME280;8287;51.644;8.494;2023-05-10T02:37:19;99523.75;;;16.16;98.01
16355;BME280;8287;51.644;8.494;2023-05-10T02:39:46;99525.69;;;16.15;98.51
16355;BME280;8287;51.644;8.494;2023-05-10T02:42:15;99527.16;;;16.13;98.08
16355;BME280;8287;51.644;8.494;2023-05-10T02:44:43;99520.28;;;16.12;98.28
16355;BME280;8287;51.644;8.494;2023-05-10T02:47:11;99532.03;;;16.07;98.19
16355;BME280;8287;51.644;8.494;2023-05-10T02:49:38;99528.19;;;16.05;98.43
16355;BME280;8287;51.644;8.494;2023-05-10T02:52:05;99527.06;;;16.06;98.31
16355;BME280;8287;51.644;8.494;2023-05-10T02:54:41;99532.34;;;16.02;98.85
16355;BME280;8287;51.644;8.494;2023-05-10T02:57:12;99529.25;;;16.00;98.67
16355;BME280;8287;51.644;8.494;2023-05-10T02:59:41;99524.66;;;15.97;98.90
16355;BME280;8287;51.644;8.494;2023-05-10T03:02:08;99534.03;;;15.88;98.96
16355;BME280;8287;51.644;8.494;2023-05-10T03:04:35;99531.72;;;15.86;99.25
16355;BME280;8287;51.644;8.494;2023-05-10T03:07:01;99529.69;;;15.80;99.96
16355;BME280;8287;51.644;8.494;2023-05-10T03:09:28;99533.91;;;15.81;99.96
16355;BME280;8287;51.644;8.494;2023-05-10T03:12:02;99524.59;;;15.71;100.00
16355;BME280;8287;51.644;8.494;2023-05-10T03:14:42;99523.81;;;15.71;100.00
16355;BME280;8287;51.644;8.494;2023-05-10T03:17:15;99534.97;;;15.76;100.00
16355;BME280;8287;51.644;8.494;2023-05-10T03:19:48;99523.56;;;15.79;100.00
16355;BME280;8287;51.644;8.494;2023-05-10T03:22:23;99538.00;;;15.75;100.00
16355;BME280;8287;51.644;8.494;2023-05-10T03:24:51;99530.72;;;15.72;100.00
16355;BME280;8287;51.644;8.494;2023-05-10T03:27:22;99534.97;;;15.76;100.00
16355;BME280;8287;51.644;8.494;2023-05-10T03:29:50;99539.50;;;15.72;100.00
16355;BME280;8287;51.644;8.494;2023-05-10T03:32:17;99536.53;;;15.77;100.00
16355;BME280;8287;51.644;8.494;2023-05-10T03:34:44;99536.53;;;15.77;100.00
16355;BME280;8287;51.644;8.494;2023-05-10T03:37:10;99546.72;;;15.72;100.00
16355;BME280;8287;51.644;8.494;2023-05-10T03:39:37;99549.75;;;15.70;100.00
16355;BME280;8287;51.644;8.494;2023-05-10T03:42:04;99547.53;;;15.72;100.00
16355;BME280;8287;51.644;8.494;2023-05-10T03:44:32;99548.53;;;15.64;100.00
16355;BME280;8287;51.644;8.494;2023-05-10T03:46:59;99561.09;;;15.64;100.00
16355;BME280;8287;51.644;8.494;2023-05-10T03:49:25;99560.69;;;15.62;100.00
16355;BME280;8287;51.644;8.494;2023-05-10T03:51:52;99558.06;;;15.65;100.00
16355;BME280;8287;51.644;8.494;2023-05-10T03:54:19;99562.56;;;15.61;100.00
16355;BME280;8287;51.644;8.494;2023-05-10T03:56:45;99562.22;;;15.63;100.00
16355;BME280;8287;51.644;8.494;2023-05-10T03:59:13;99572.56;;;15.64;100.00
16355;BME280;8287;51.644;8.494;2023-05-10T04:01:41;99570.66;;;15.65;100.00
16355;BME280;8287;51.644;8.494;2023-05-10T04:04:08;99577.78;;;15.57;100.00
16355;BME280;8287;51.644;8.494;2023-05-10T04:06:34;99579.53;;;15.50;100.00
16355;BME280;8287;51.644;8.494;2023-05-10T04:09:01;99585.94;;;15.45;100.00
16355;BME280;8287;51.644;8.494;2023-05-10T04:11:29;99587.84;;;15.45;100.00
16355;BME280;8287;51.644;8.494;2023-05-10T04:13:56;99580.47;;;15.38;100.00
16355;BME280;8287;51.644;8.494;2023-05-10T04:16:22;99589.25;;;15.39;100.00
16355;BME280;8287;51.644;8.494;2023-05-10T04:18:50;99594.59;;;15.39;100.00
16355;BME280;8287;51.644;8.494;2023-05-10T04:21:17;99589.97;;;15.36;100.00
16355;BME280;8287;51.644;8.494;2023-05-10T04:23:44;99590.66;;;15.33;100.00
16355;BME280;8287;51.644;8.494;2023-05-10T04:26:10;99601.94;;;15.26;100.00
16355;BME280;8287;51.644;8.494;2023-05-10T04:28:37;99598.84;;;15.24;100.00
16355;BME280;8287;51.644;8.494;2023-05-10T04:31:04;99603.78;;;15.22;100.00
16355;BME280;8287;51.644;8.494;2023-05-10T04:33:31;99607.84;;;15.16;100.00
16355;BME280;8287;51.644;8.494;2023-05-10T04:35:59;99616.97;;;15.15;100.00
16355;BME280;8287;51.644;8.494;2023-05-10T04:38:26;99609.25;;;15.10;100.00
16355;BME280;8287;51.644;8.494;2023-05-10T04:40:53;99617.31;;;15.14;100.00
16355;BME280;8287;51.644;8.494;2023-05-10T04:43:19;99620.00;;;15.14;100.00
16355;BME280;8287;51.644;8.494;2023-05-10T04:45:46;99616.59;;;15.17;100.00
16355;BME280;8287;51.644;8.494;2023-05-10T04:48:12;99619.34;;;15.20;100.00
16355;BME280;8287;51.644;8.494;2023-05-10T04:50:39;99615.59;;;15.21;100.00
16355;BME280;8287;51.644;8.494;2023-05-10T04:53:07;99625.81;;;15.19;100.00
16355;BME280;8287;51.644;8.494;2023-05-10T04:55:33;99623.28;;;15.26;100.00
16355;BME280;8287;51.644;8.494;2023-05-10T04:58:00;99639.59;;;15.21;100.00
16355;BME280;8287;51.644;8.494;2023-05-10T05:00:28;99634.53;;;15.16;100.00
16355;BME280;8287;51.644;8.494;2023-05-10T05:02:54;99637.53;;;15.15;100.00
16355;BME280;8287;51.644;8.494;2023-05-10T05:05:21;99647.16;;;15.19;100.00
16355;BME280;8287;51.644;8.494;2023-05-10T05:07:47;99644.41;;;15.16;100.00
16355;BME280;8287;51.644;8.494;2023-05-10T05:10:15;99649.69;;;15.12;100.00
16355;BME280;8287;51.644;8.494;2023-05-10T05:12:42;99654.59;;;15.10;100.00
16355;BME280;8287;51.644;8.494;2023-05-10T05:15:09;99654.53;;;15.07;100.00
16355;BME280;8287;51.644;8.494;2023-05-10T05:17:36;99655.72;;;15.09;100.00
16355;BME280;8287;51.644;8.494;2023-05-10T05:20:03;99656.59;;;15.13;100.00
16355;BME280;8287;51.644;8.494;2023-05-10T05:22:30;99662.28;;;15.12;100.00
16355;BME280;8287;51.644;8.494;2023-05-10T05:24:57;99661.00;;;15.06;100.00
16355;BME280;8287;51.644;8.494;2023-05-10T05:27:25;99666.78;;;14.92;100.00
16355;BME280;8287;51.644;8.494;2023-05-10T05:29:53;99673.13;;;15.03;100.00
16355;BME280;8287;51.644;8.494;2023-05-10T05:32:19;99672.28;;;14.99;100.00
16355;BME280;8287;51.644;8.494;2023-05-10T05:34:46;99679.09;;;14.97;100.00
16355;BME280;8287;51.644;8.494;2023-05-10T05:37:13;99683.88;;;15.07;100.00
16355;BME280;8287;51.644;8.494;2023-05-10T05:39:40;99680.88;;;15.08;100.00
16355;BME280;8287;51.644;8.494;2023-05-10T05:42:07;99684.81;;;15.14;100.00
16355;BME280;8287;51.644;8.494;2023-05-10T05:44:36;99686.38;;;15.15;100.00
16355;BME280;8287;51.644;8.494;2023-05-10T05:47:02;99692.13;;;15.17;100.00
16355;BME280;8287;51.644;8.494;2023-05-10T05:49:30;99691.84;;;15.22;100.00
16355;BME280;8287;51.644;8.494;2023-05-10T05:51:58;99692.19;;;15.21;100.00
16355;BME280;8287;51.644;8.494;2023-05-10T05:54:25;99699.94;;;15.26;100.00
16355;BME280;8287;51.644;8.494;2023-05-10T05:56:53;99699.06;;;15.22;100.00
16355;BME280;8287;51.644;8.494;2023-05-10T05:59:20;99698.25;;;15.18;100.00
16355;BME280;8287;51.644;8.494;2023-05-10T06:01:48;99705.47;;;15.17;99.83
16355;BME280;8287;51.644;8.494;2023-05-10T06:04:15;99701.66;;;15.18;99.96
16355;BME280;8287;51.644;8.494;2023-05-10T06:06:41;99699.41;;;15.20;99.74
16355;BME280;8287;51.644;8.494;2023-05-10T06:09:08;99712.22;;;15.30;99.73
16355;BME280;8287;51.644;8.494;2023-05-10T06:11:35;99712.22;;;15.30;99.97
16355;BME280;8287;51.644;8.494;2023-05-10T06:14:02;99713.09;;;15.34;99.22
16355;BME280;8287;51.644;8.494;2023-05-10T06:16:29;99712.84;;;15.39;98.67
16355;BME280;8287;51.644;8.494;2023-05-10T06:18:57;99712.13;;;15.42;98.76
16355;BME280;8287;51.644;8.494;2023-05-10T06:21:24;99717.47;;;15.42;98.96
16355;BME280;8287;51.644;8.494;2023-05-10T06:23:50;99729.84;;;15.50;98.84
16355;BME280;8287;51.644;8.494;2023-05-10T06:26:17;99729.13;;;15.53;98.75
16355;BME280;8287;51.644;8.494;2023-05-10T06:28:43;99730.81;;;15.61;98.41
16355;BME280;8287;51.644;8.494;2023-05-10T06:31:10;99729.75;;;15.66;98.35
16355;BME280;8287;51.644;8.494;2023-05-10T06:33:37;99738.25;;;15.71;98.22
16355;BME280;8287;51.644;8.494;2023-05-10T06:36:05;99737.28;;;15.79;98.29
16355;BME280;8287;51.644;8.494;2023-05-10T06:38:32;99734.34;;;15.84;97.61
16355;BME280;8287;51.644;8.494;2023-05-10T06:40:59;99739.41;;;15.89;97.35
16355;BME280;8287;51.644;8.494;2023-05-10T06:43:25;99738.75;;;15.96;97.13
16355;BME280;8287;51.644;8.494;2023-05-10T06:45:53;99725.88;;;16.01;97.10
16355;BME280;8287;51.644;8.494;2023-05-10T06:48:20;99735.03;;;16.00;96.02
16355;BME280;8287;51.644;8.494;2023-05-10T06:50:47;99741.19;;;16.04;96.15
16355;BME280;8287;51.644;8.494;2023-05-10T06:53:14;99740.19;;;16.12;95.22
16355;BME280;8287;51.644;8.494;2023-05-10T06:55:41;99750.00;;;16.05;95.33
16355;BME280;8287;51.644;8.494;2023-05-10T06:58:08;99753.56;;;16.12;95.25
16355;BME280;8287;51.644;8.494;2023-05-10T07:00:34;99746.41;;;16.16;95.51
16355;BME280;8287;51.644;8.494;2023-05-10T07:03:04;99747.16;;;16.17;95.12
16355;BME280;8287;51.644;8.494;2023-05-10T07:05:31;99751.09;;;16.23;95.05
16355;BME280;8287;51.644;8.494;2023-05-10T07:07:58;99743.56;;;16.28;94.72
16355;BME280;8287;51.644;8.494;2023-05-10T07:10:25;99748.91;;;16.28;95.14
16355;BME280;8287;51.644;8.494;2023-05-10T07:12:52;99746.28;;;16.32;95.25
16355;BME280;8287;51.644;8.494;2023-05-10T07:15:19;99747.06;;;16.32;95.09
16355;BME280;8287;51.644;8.494;2023-05-10T07:17:46;99761.19;;;16.33;94.18
16355;BME280;8287;51.644;8.494;2023-05-10T07:20:12;99758.91;;;16.31;94.83
16355;BME280;8287;51.644;8.494;2023-05-10T07:22:39;99764.25;;;16.31;94.33
16355;BME280;8287;51.644;8.494;2023-05-10T07:25:06;99763.13;;;16.32;94.58
16355;BME280;8287;51.644;8.494;2023-05-10T07:27:35;99765.72;;;16.29;94.95
16355;BME280;8287;51.644;8.494;2023-05-10T07:30:01;99762.97;;;16.25;96.14
16355;BME280;8287;51.644;8.494;2023-05-10T07:32:28;99765.41;;;16.34;95.82
16355;BME280;8287;51.644;8.494;2023-05-10T07:34:54;99767.50;;;16.40;96.89
16355;BME280;8287;51.644;8.494;2023-05-10T07:37:21;99764.94;;;16.47;96.94
16355;BME280;8287;51.644;8.494;2023-05-10T07:39:47;99769.91;;;16.49;96.78
16355;BME280;8287;51.644;8.494;2023-05-10T07:42:14;99763.16;;;16.55;96.77
16355;BME280;8287;51.644;8.494;2023-05-10T07:44:42;99760.13;;;16.56;97.93
16355;BME280;8287;51.644;8.494;2023-05-10T07:47:08;99760.94;;;16.60;97.09
16355;BME280;8287;51.644;8.494;2023-05-10T07:49:35;99766.41;;;16.67;96.86
16355;BME280;8287;51.644;8.494;2023-05-10T07:52:03;99767.19;;;16.67;96.63
16355;BME280;8287;51.644;8.494;2023-05-10T07:54:30;99766.16;;;16.75;96.74
16355;BME280;8287;51.644;8.494;2023-05-10T07:56:56;99762.84;;;16.82;96.02
16355;BME280;8287;51.644;8.494;2023-05-10T07:59:23;99767.47;;;16.85;95.89
16355;BME280;8287;51.644;8.494;2023-05-10T08:01:51;99772.00;;;16.81;95.14
16355;BME280;8287;51.644;8.494;2023-05-10T08:04:18;99778.47;;;16.80;94.94
16355;BME280;8287;51.644;8.494;2023-05-10T08:06:45;99777.25;;;16.74;94.24
16355;BME280;8287;51.644;8.494;2023-05-10T08:09:11;99774.16;;;16.72;94.70
16355;BME280;8287;51.644;8.494;2023-05-10T08:11:38;99780.34;;;16.76;94.87
16355;BME280;8287;51.644;8.494;2023-05-10T08:14:04;99780.44;;;16.83;94.96
16355;BME280;8287;51.644;8.494;2023-05-10T08:16:31;99788.09;;;16.84;94.76
16355;BME280;8287;51.644;8.494;2023-05-10T08:19:01;99785.91;;;16.90;94.65
16355;BME280;8287;51.644;8.494;2023-05-10T08:21:27;99788.34;;;16.76;94.50
16355;BME280;8287;51.644;8.494;2023-05-10T08:23:54;99797.97;;;16.80;94.88
16355;BME280;8287;51.644;8.494;2023-05-10T08:26:20;99802.16;;;16.78;94.75
16355;BME280;8287;51.644;8.494;2023-05-10T08:28:47;99804.22;;;16.88;94.62
16355;BME280;8287;51.644;8.494;2023-05-10T08:31:13;99801.78;;;16.79;94.31
16355;BME280;8287;51.644;8.494;2023-05-10T08:33:40;99805.66;;;16.82;95.07
16355;BME280;8287;51.644;8.494;2023-05-10T08:36:08;99806.38;;;16.79;94.87
16355;BME280;8287;51.644;8.494;2023-05-10T08:38:35;99806.06;;;16.84;94.59
16355;BME280;8287;51.644;8.494;2023-05-10T08:41:02;99810.28;;;16.85;95.33
16355;BME280;8287;51.644;8.494;2023-05-10T08:43:29;99810.94;;;17.01;96.38
16355;BME280;8287;51.644;8.494;2023-05-10T08:45:56;99813.84;;;17.15;95.45
16355;BME280;8287;51.644;8.494;2023-05-10T08:48:28;99813.13;;;17.18;93.67
16355;BME280;8287;51.644;8.494;2023-05-10T08:50:58;99812.81;;;17.23;93.37
16355;BME280;8287;51.644;8.494;2023-05-10T08:53:27;99809.22;;;17.38;93.19
16355;BME280;8287;51.644;8.494;2023-05-10T08:55:55;99818.31;;;17.56;93.09
16355;BME280;8287;51.644;8.494;2023-05-10T08:58:22;99810.53;;;17.77;93.16
16355;BME280;8287;51.644;8.494;2023-05-10T09:00:49;99815.25;;;17.87;91.96
16355;BME280;8287;51.644;8.494;2023-05-10T09:03:17;99809.25;;;17.97;91.60
16355;BME280;8287;51.644;8.494;2023-05-10T09:05:44;99820.00;;;18.00;90.91
16355;BME280;8287;51.644;8.494;2023-05-10T09:08:11;99818.03;;;17.94;88.96
16355;BME280;8287;51.644;8.494;2023-05-10T09:10:39;99820.75;;;17.97;89.51
16355;BME280;8287;51.644;8.494;2023-05-10T09:13:10;99822.94;;;17.88;87.77
16355;BME280;8287;51.644;8.494;2023-05-10T09:15:37;99828.78;;;17.97;88.07
16355;BME280;8287;51.644;8.494;2023-05-10T09:18:04;99825.88;;;18.09;87.65
16355;BME280;8287;51.644;8.494;2023-05-10T09:20:30;99823.31;;;18.20;87.47
16355;BME280;8287;51.644;8.494;2023-05-10T09:22:57;99826.91;;;18.31;87.63
16355;BME280;8287;51.644;8.494;2023-05-10T09:25:23;99826.53;;;18.32;85.43
16355;BME280;8287;51.644;8.494;2023-05-10T09:27:52;99828.22;;;18.44;85.71
16355;BME280;8287;51.644;8.494;2023-05-10T09:30:23;99832.94;;;18.57;86.30
16355;BME280;8287;51.644;8.494;2023-05-10T09:32:50;99829.16;;;18.62;85.20
16355;BME280;8287;51.644;8.494;2023-05-10T09:35:18;99826.91;;;18.67;84.33
16355;BME280;8287;51.644;8.494;2023-05-10T09:37:47;99826.31;;;18.88;84.21
16355;BME280;8287;51.644;8.494;2023-05-10T09:40:15;99823.75;;;19.02;83.71
16355;BME280;8287;51.644;8.494;2023-05-10T09:42:43;99832.00;;;19.23;84.17
16355;BME280;8287;51.644;8.494;2023-05-10T09:45:18;99825.50;;;19.24;81.55
16355;BME280;8287;51.644;8.494;2023-05-10T09:47:45;99839.31;;;19.22;80.03
16355;BME280;8287;51.644;8.494;2023-05-10T09:50:12;99840.91;;;19.30;nan
16355;BME280;8287;51.644;8.494;2023-05-10T09:52:49;99836.28;;;19.31;79.51
16355;BME280;8287;51.644;8.494;2023-05-10T09:55:17;99837.84;;;19.35;81.33
16355;BME280;8287;51.644;8.494;2023-05-10T09:57:45;99843.88;;;19.22;78.85
16355;BME280;8287;51.644;8.494;2023-05-10T10:00:18;99842.00;;;19.26;78.55
16355;BME280;8287;51.644;8.494;2023-05-10T10:02:47;99841.75;;;19.45;79.62
16355;BME280;8287;51.644;8.494;2023-05-10T10:05:14;99836.78;;;19.47;79.75
16355;BME280;8287;51.644;8.494;2023-05-10T10:07:41;99838.75;;;19.53;79.37
16355;BME280;8287;51.644;8.494;2023-05-10T10:10:08;99840.22;;;19.44;76.78
16355;BME280;8287;51.644;8.494;2023-05-10T10:12:38;99838.34;;;19.51;77.61
16355;BME280;8287;51.644;8.494;2023-05-10T10:15:07;99835.34;;;19.63;77.66
16355;BME280;8287;51.644;8.494;2023-05-10T10:17:35;99841.09;;;19.62;76.02
16355;BME280;8287;51.644;8.494;2023-05-10T10:20:03;99838.03;;;19.60;72.87
16355;BME280;8287;51.644;8.494;2023-05-10T10:22:30;99839.94;;;19.63;73.20
16355;BME280;8287;51.644;8.494;2023-05-10T10:24:57;99827.34;;;19.77;75.74
16355;BME280;8287;51.644;8.494;2023-05-10T10:27:28;99829.78;;;20.00;75.25
16355;BME280;8287;51.644;8.494;2023-05-10T10:30:08;99828.69;;;20.11;74.86
16355;BME280;8287;51.644;8.494;2023-05-10T10:32:57;99830.25;;;20.23;74.04
16355;BME280;8287;51.644;8.494;2023-05-10T10:35:28;99828.00;;;20.38;72.38
16355;BME280;8287;51.644;8.494;2023-05-10T10:37:55;99823.78;;;20.38;71.92
16355;BME280;8287;51.644;8.494;2023-05-10T10:40:24;99821.88;;;20.52;72.42
16355;BME280;8287;51.644;8.494;2023-05-10T10:42:51;99825.34;;;20.52;70.96
16355;BME280;8287;51.644;8.494;2023-05-10T10:45:19;99824.56;;;20.48;71.32
16355;BME280;8287;51.644;8.494;2023-05-10T10:47:47;99825.28;;;20.35;70.65
16355;BME280;8287;51.644;8.494;2023-05-10T10:50:15;99824.50;;;20.28;71.82
16355;BME280;8287;51.644;8.494;2023-05-10T10:52:43;99835.25;;;20.24;73.11
16355;BME280;8287;51.644;8.494;2023-05-10T10:55:10;99839.44;;;20.15;71.50
16355;BME280;8287;51.644;8.494;2023-05-10T10:57:49;99841.28;;;20.00;68.04
16355;BME280;8287;51.644;8.494;2023-05-10T11:00:22;99840.88;;;19.91;69.40
16355;BME280;8287;51.644;8.494;2023-05-10T11:02:52;99844.75;;;20.01;71.07
16355;BME280;8287;51.644;8.494;2023-05-10T11:08:12;99851.22;;;19.89;75.04
16355;BME280;8287;51.644;8.494;2023-05-10T11:10:40;99849.31;;;19.90;76.52
16355;BME280;8287;51.644;8.494;2023-05-10T11:13:08;99853.59;;;20.01;76.74
16355;BME280;8287;51.644;8.494;2023-05-10T11:15:36;99847.59;;;20.36;75.23
16355;BME280;8287;51.644;8.494;2023-05-10T11:18:29;99846.13;;;20.62;74.45
16355;BME280;8287;51.644;8.494;2023-05-10T11:20:57;99838.84;;;20.80;73.38
16355;BME280;8287;51.644;8.494;2023-05-10T11:23:29;99843.47;;;20.83;69.65
16355;BME280;8287;51.644;8.494;2023-05-10T11:25:56;99846.19;;;20.97;69.93
16355;BME280;8287;51.644;8.494;2023-05-10T11:28:23;99840.03;;;21.21;71.41
16355;BME280;8287;51.644;8.494;2023-05-10T11:30:50;99852.75;;;21.10;69.23
16355;BME280;8287;51.644;8.494;2023-05-10T11:33:18;99858.53;;;21.16;67.60
16355;BME280;8287;51.644;8.494;2023-05-10T11:35:46;99875.84;;;21.04;70.88
16355;BME280;8287;51.644;8.494;2023-05-10T11:38:13;99880.72;;;20.50;74.52
16355;BME280;8287;51.644;8.494;2023-05-10T11:40:40;99884.38;;;20.07;78.28
16355;BME280;8287;51.644;8.494;2023-05-10T11:43:08;99884.97;;;19.80;78.37
16355;BME280;8287;51.644;8.494;2023-05-10T11:45:35;99877.63;;;19.70;80.23
16355;BME280;8287;51.644;8.494;2023-05-10T11:48:02;99871.84;;;19.68;80.53
16355;BME280;8287;51.644;8.494;2023-05-10T11:50:29;99871.72;;;19.47;80.84
16355;BME280;8287;51.644;8.494;2023-05-10T11:52:57;99873.44;;;19.22;83.46
16355;BME280;8287;51.644;8.494;2023-05-10T11:55:24;99863.97;;;19.38;85.37
16355;BME280;8287;51.644;8.494;2023-05-10T11:57:52;99870.44;;;19.91;82.03
16355;BME280;8287;51.644;8.494;2023-05-10T12:00:18;99872.16;;;20.24;86.67
16355;BME280;8287;51.644;8.494;2023-05-10T12:02:45;99868.81;;;20.54;87.35
16355;BME280;8287;51.644;8.494;2023-05-10T12:05:12;99869.16;;;20.53;84.36
16355;BME280;8287;51.644;8.494;2023-05-10T12:07:39;99876.78;;;20.23;78.58
16355;BME280;8287;51.644;8.494;2023-05-10T12:10:08;99872.63;;;19.72;84.37
16355;BME280;8287;51.644;8.494;2023-05-10T12:12:37;99875.81;;;19.91;79.86
16355;BME280;8287;51.644;8.494;2023-05-10T12:15:05;99877.22;;;20.36;75.60
16355;BME280;8287;51.644;8.494;2023-05-10T12:17:37;99875.72;;;20.55;73.13
16355;BME280;8287;51.644;8.494;2023-05-10T12:20:13;99871.13;;;20.73;73.38
16355;BME280;8287;51.644;8.494;2023-05-10T12:22:40;99878.50;;;20.83;72.15
16355;BME280;8287;51.644;8.494;2023-05-10T12:25:09;99883.91;;;20.87;71.11
16355;BME280;8287;51.644;8.494;2023-05-10T12:27:36;99878.41;;;20.52;72.33
16355;BME280;8287;51.644;8.494;2023-05-10T12:30:04;99886.88;;;20.57;73.49
16355;BME280;8287;51.644;8.494;2023-05-10T12:32:37;99883.06;;;20.72;73.22
16355;BME280;8287;51.644;8.494;2023-05-10T12:35:04;99885.34;;;20.60;72.66
16355;BME280;8287;51.644;8.494;2023-05-10T12:37:31;99883.06;;;20.76;72.88
16355;BME280;8287;51.644;8.494;2023-05-10T12:40:01;99886.94;;;20.78;71.38
16355;BME280;8287;51.644;8.494;2023-05-10T12:42:31;99881.91;;;20.77;72.76
16355;BME280;8287;51.644;8.494;2023-05-10T12:44:58;99882.72;;;20.84;72.13
16355;BME280;8287;51.644;8.494;2023-05-10T12:47:24;99886.16;;;20.78;72.41
16355;BME280;8287;51.644;8.494;2023-05-10T12:49:51;99886.94;;;20.82;71.85
16355;BME280;8287;51.644;8.494;2023-05-10T12:52:17;99891.97;;;20.83;72.21
16355;BME280;8287;51.644;8.494;2023-05-10T12:54:44;99893.53;;;20.88;71.48
16355;BME280;8287;51.644;8.494;2023-05-10T12:57:11;99901.56;;;20.84;69.29
16355;BME280;8287;51.644;8.494;2023-05-10T12:59:39;99896.94;;;20.78;72.36
16355;BME280;8287;51.644;8.494;2023-05-10T13:02:06;99902.69;;;20.73;74.08
16355;BME280;8287;51.644;8.494;2023-05-10T13:04:32;99901.56;;;20.77;73.15
16355;BME280;8287;51.644;8.494;2023-05-10T13:06:59;99903.84;;;20.82;73.78
16355;BME280;8287;51.644;8.494;2023-05-10T13:09:26;99907.72;;;20.85;73.86
16355;BME280;8287;51.644;8.494;2023-05-10T13:11:54;99909.19;;;20.54;75.33
16355;BME280;8287;51.644;8.494;2023-05-10T13:14:21;99897.94;;;20.32;78.05
16355;BME280;8287;51.644;8.494;2023-05-10T13:16:49;99896.41;;;20.34;76.80
16355;BME280;8287;51.644;8.494;2023-05-10T13:19:16;99893.78;;;20.44;78.28